Albrightsville, Pennsylvania
Current Conditions -  °F | °C
As of 11:13 PM on Tuesday 21 Oct 2014 (Local Time) from KMPO Reporting Station
Broken Clouds Broken Clouds  
Wind Chill:   Ceiling: 6500
Heat Index:   Visibility: 10mi
Dew Point:   Wind: 6mph
Humidity: 93%   Direction: 20°NNE
Pressure: 29.93"   Gusts: NA
Location:  41°N, 75.53°W
Report Text: KMPO 220313Z AUTO 02005KT 10SM SCT019 BKN065 09/08 A2993 RMK AO2 T00940083 TSNO PNO $
Loading
Personal Weather Stations






























Interactive Weather Map New forecast layout! Learn more

10-Day Weather Forecast

Advertisements
Track Severe Weather on mobile